Time;durP1;ratioP1;P1;durP2;ratioP2;P2;SDS_P1;SDS_P2;PMS_P1;PMS_P2;Temp;Humidity;BMP_temperature;BMP_pressure;BME280_temperature;BME280_humidity;BME280_pressure;Samples;Min_cycle;Max_cycle;Signal;HPM_P1;HPM_P2
2021/07/19 00:00:10;;;;;;;6.07;4.50;;;;;;;;;;5073257;28;20107;-88
2021/07/19 00:02:35;;;;;;;7.43;4.25;;;;;;;;;;5072840;28;20073;-87
2021/07/19 00:05:00;;;;;;;9.38;4.65;;;;;;;;;;5072241;28;20480;-87
2021/07/19 00:07:25;;;;;;;12.23;4.88;;;;;;;;;;5055982;28;20017;-88
2021/07/19 00:09:51;;;;;;;8.27;4.32;;;;;;;;;;5062067;28;20017;-87
2021/07/19 00:12:16;;;;;;;8.07;4.50;;;;;;;;;;5071307;28;20031;-87
2021/07/19 00:14:42;;;;;;;8.10;4.65;;;;;;;;;;5062173;28;20025;-87
2021/07/19 00:17:08;;;;;;;7.95;4.90;;;;;;;;;;5074297;28;20032;-87
2021/07/19 00:19:33;;;;;;;5.75;4.07;;;;;;;;;;5068753;28;20430;-87
2021/07/19 00:21:58;;;;;;;9.88;4.40;;;;;;;;;;5073706;28;20035;-87
2021/07/19 00:24:23;;;;;;;8.48;4.90;;;;;;;;;;5073046;28;20107;-87
2021/07/19 00:26:49;;;;;;;13.50;5.32;;;;;;;;;;5072650;28;20021;-87
2021/07/19 00:29:14;;;;;;;9.52;4.90;;;;;;;;;;5067379;28;20028;-87
2021/07/19 00:31:39;;;;;;;10.45;4.25;;;;;;;;;;5055477;28;20114;-87
2021/07/19 00:34:04;;;;;;;10.80;4.72;;;;;;;;;;5072765;28;20028;-87
2021/07/19 00:36:30;;;;;;;10.10;4.85;;;;;;;;;;5072393;28;20094;-87
2021/07/19 00:38:55;;;;;;;5.70;4.70;;;;;;;;;;5072568;28;20024;-87
2021/07/19 00:41:24;;;;;;;9.75;4.93;;;;;;;;;;5072317;28;20081;-87
2021/07/19 00:43:49;;;;;;;9.05;4.80;;;;;;;;;;5073529;28;20447;-87
2021/07/19 00:46:15;;;;;;;6.00;4.35;;;;;;;;;;5070466;28;20032;-87
2021/07/19 00:48:41;;;;;;;10.52;4.75;;;;;;;;;;5072096;28;20021;-88
2021/07/19 00:51:07;;;;;;;13.30;4.80;;;;;;;;;;5072262;28;20480;-88
2021/07/19 00:53:34;;;;;;;7.40;4.38;;;;;;;;;;5072096;28;20030;-87
2021/07/19 00:55:59;;;;;;;8.93;4.70;;;;;;;;;;5069604;28;20475;-87
2021/07/19 00:58:27;;;;;;;8.35;4.57;;;;;;;;;;5066944;28;20012;-87
2021/07/19 01:00:55;;;;;;;9.00;4.55;;;;;;;;;;5072751;28;20021;-87
2021/07/19 01:03:21;;;;;;;8.75;4.80;;;;;;;;;;5073357;28;20013;-87
2021/07/19 01:05:48;;;;;;;9.60;4.88;;;;;;;;;;5073055;28;20167;-87
2021/07/19 01:08:13;;;;;;;9.52;5.03;;;;;;;;;;5061970;28;20045;-87
2021/07/19 01:10:38;;;;;;;10.43;4.70;;;;;;;;;;5067988;28;20027;-87
2021/07/19 01:13:05;;;;;;;10.07;5.25;;;;;;;;;;5064010;28;20050;-87
2021/07/19 01:15:31;;;;;;;10.27;4.80;;;;;;;;;;5051679;28;20078;-86
2021/07/19 01:17:57;;;;;;;6.22;4.53;;;;;;;;;;5072927;28;20032;-87
2021/07/19 01:20:40;;;;;;;7.47;4.68;;;;;;;;;;5071615;28;20021;-87
2021/07/19 01:23:24;;;;;;;7.90;5.13;;;;;;;;;;5070807;28;20051;-87
2021/07/19 01:25:49;;;;;;;9.80;5.30;;;;;;;;;;5073072;28;20026;-87
2021/07/19 01:28:26;;;;;;;6.82;4.55;;;;;;;;;;5071583;28;20017;-87
2021/07/19 01:30:52;;;;;;;6.82;4.90;;;;;;;;;;5071753;28;20040;-87
2021/07/19 01:33:18;;;;;;;8.05;5.30;;;;;;;;;;5068828;28;20016;-87
2021/07/19 01:35:45;;;;;;;13.65;5.05;;;;;;;;;;5058881;28;20017;-87
2021/07/19 01:38:11;;;;;;;12.13;4.72;;;;;;;;;;5056021;28;20044;-87
2021/07/19 01:40:37;;;;;;;12.50;5.90;;;;;;;;;;5071151;28;20009;-87
2021/07/19 01:43:02;;;;;;;8.35;5.50;;;;;;;;;;5069604;28;20023;-87
2021/07/19 01:45:28;;;;;;;7.95;4.85;;;;;;;;;;5051820;28;20078;-87
2021/07/19 01:47:53;;;;;;;12.50;6.00;;;;;;;;;;5061890;28;20020;-87
2021/07/19 01:50:19;;;;;;;9.98;5.25;;;;;;;;;;5071140;28;20028;-87
2021/07/19 01:52:45;;;;;;;9.82;5.18;;;;;;;;;;5070977;28;20027;-86
2021/07/19 01:55:11;;;;;;;13.52;5.70;;;;;;;;;;5070838;28;20048;-87
2021/07/19 01:57:36;;;;;;;11.77;6.05;;;;;;;;;;5071096;28;20420;-87
2021/07/19 02:00:04;;;;;;;9.75;5.93;;;;;;;;;;5070956;28;20021;-87
2021/07/19 02:02:30;;;;;;;9.13;6.43;;;;;;;;;;5071124;28;20020;-87
2021/07/19 02:04:55;;;;;;;15.18;5.75;;;;;;;;;;5071248;28;20031;-87
2021/07/19 02:07:22;;;;;;;12.15;5.53;;;;;;;;;;5070591;28;20013;-87
2021/07/19 02:09:49;;;;;;;9.50;5.30;;;;;;;;;;5072393;28;20107;-87
2021/07/19 02:12:15;;;;;;;15.48;7.40;;;;;;;;;;5058656;28;20474;-87
2021/07/19 02:14:41;;;;;;;10.05;5.97;;;;;;;;;;5059498;28;20115;-87
2021/07/19 02:17:07;;;;;;;9.25;5.63;;;;;;;;;;5060159;28;20039;-87
2021/07/19 02:19:33;;;;;;;10.68;6.20;;;;;;;;;;5103674;28;20021;-87
2021/07/19 02:21:59;;;;;;;10.45;5.18;;;;;;;;;;5070720;28;20036;-87
2021/07/19 02:24:27;;;;;;;7.20;5.30;;;;;;;;;;5058425;28;20021;-87
2021/07/19 02:26:54;;;;;;;10.15;5.78;;;;;;;;;;5096052;28;20032;-87
2021/07/19 02:29:19;;;;;;;7.78;5.40;;;;;;;;;;5070649;28;20434;-87
2021/07/19 02:31:47;;;;;;;7.60;5.00;;;;;;;;;;5070596;28;20063;-86
2021/07/19 02:34:12;;;;;;;8.40;4.90;;;;;;;;;;5073450;28;20024;-86
2021/07/19 02:36:37;;;;;;;8.55;5.40;;;;;;;;;;5064503;28;20106;-87
2021/07/19 02:39:03;;;;;;;10.18;5.93;;;;;;;;;;5074598;28;20020;-87
2021/07/19 02:41:29;;;;;;;8.20;5.45;;;;;;;;;;5061527;28;20027;-87
2021/07/19 02:43:55;;;;;;;8.45;5.93;;;;;;;;;;5074538;28;20032;-87
2021/07/19 02:46:22;;;;;;;11.63;6.20;;;;;;;;;;5074332;28;20064;-87
2021/07/19 02:48:50;;;;;;;12.50;5.78;;;;;;;;;;5074540;28;20071;-87
2021/07/19 02:51:16;;;;;;;11.65;5.25;;;;;;;;;;5074315;28;20035;-87
2021/07/19 02:53:41;;;;;;;7.90;5.10;;;;;;;;;;5075506;28;20024;-87
2021/07/19 02:56:06;;;;;;;9.98;5.22;;;;;;;;;;5075654;28;20031;-87
2021/07/19 02:58:32;;;;;;;9.95;6.53;;;;;;;;;;5074147;28;20052;-87
2021/07/19 03:00:58;;;;;;;12.40;5.95;;;;;;;;;;5075566;28;20031;-87
2021/07/19 03:03:28;;;;;;;11.02;6.28;;;;;;;;;;5074136;28;20036;-86
2021/07/19 03:05:57;;;;;;;12.02;7.00;;;;;;;;;;5074080;28;20532;-87
2021/07/19 03:08:23;;;;;;;10.15;6.40;;;;;;;;;;5062407;28;20117;-87
2021/07/19 03:10:50;;;;;;;9.68;5.80;;;;;;;;;;5073981;28;20070;-87
2021/07/19 03:13:16;;;;;;;10.88;6.32;;;;;;;;;;5074168;28;20418;-87
2021/07/19 03:15:43;;;;;;;10.27;5.45;;;;;;;;;;5073827;28;20483;-87
2021/07/19 03:18:09;;;;;;;11.38;6.00;;;;;;;;;;5075394;28;20023;-87
2021/07/19 03:20:36;;;;;;;10.43;5.82;;;;;;;;;;5063080;28;20024;-87
2021/07/19 03:23:05;;;;;;;11.48;6.07;;;;;;;;;;5057788;28;20029;-87
2021/07/19 03:25:31;;;;;;;15.50;7.45;;;;;;;;;;5065479;28;20059;-87
2021/07/19 03:27:57;;;;;;;12.88;6.65;;;;;;;;;;5073802;28;20487;-87
2021/07/19 03:30:23;;;;;;;13.57;6.07;;;;;;;;;;5074746;28;20024;-86
2021/07/19 03:32:49;;;;;;;8.93;5.78;;;;;;;;;;5073745;28;20028;-87
2021/07/19 03:35:16;;;;;;;11.63;6.07;;;;;;;;;;5073247;28;20391;-87
2021/07/19 03:37:41;;;;;;;11.25;6.72;;;;;;;;;;5073465;28;20063;-87
2021/07/19 03:40:07;;;;;;;10.00;6.50;;;;;;;;;;5074697;28;20044;-87
2021/07/19 03:42:33;;;;;;;13.95;6.25;;;;;;;;;;5071848;28;20035;-87
2021/07/19 03:44:59;;;;;;;17.05;6.72;;;;;;;;;;5061338;28;20082;-87
2021/07/19 03:47:25;;;;;;;12.73;6.70;;;;;;;;;;5074756;28;20463;-87
2021/07/19 03:49:50;;;;;;;12.40;7.35;;;;;;;;;;5073082;28;20032;-87
2021/07/19 03:52:16;;;;;;;15.63;8.07;;;;;;;;;;5067077;28;20085;-87
2021/07/19 03:54:41;;;;;;;11.68;7.65;;;;;;;;;;5073164;28;20090;-87
2021/07/19 03:57:08;;;;;;;15.57;7.63;;;;;;;;;;5074403;28;20099;-87
2021/07/19 03:59:34;;;;;;;10.88;7.18;;;;;;;;;;5073067;28;20021;-87
2021/07/19 04:02:08;;;;;;;19.05;7.68;;;;;;;;;;5066179;28;20329;-87
2021/07/19 04:04:41;;;;;;;17.05;7.88;;;;;;;;;;5068671;28;20040;-87
2021/07/19 04:07:11;;;;;;;11.23;6.65;;;;;;;;;;5065337;28;20491;-87
2021/07/19 04:09:38;;;;;;;11.52;7.07;;;;;;;;;;5067334;28;20020;-87
2021/07/19 04:12:04;;;;;;;15.10;7.65;;;;;;;;;;5074112;28;20125;-87
2021/07/19 04:14:30;;;;;;;15.98;7.47;;;;;;;;;;5072928;28;20027;-87
2021/07/19 04:16:55;;;;;;;13.70;7.35;;;;;;;;;;5061887;28;20017;-87
2021/07/19 04:19:21;;;;;;;11.88;7.15;;;;;;;;;;5062501;28;20163;-87
2021/07/19 04:21:46;;;;;;;17.50;7.40;;;;;;;;;;5066429;28;20024;-87
2021/07/19 04:24:11;;;;;;;20.75;8.43;;;;;;;;;;5053894;28;20021;-87
2021/07/19 04:26:37;;;;;;;13.02;7.20;;;;;;;;;;5066545;28;20124;-87
2021/07/19 04:29:03;;;;;;;12.40;7.57;;;;;;;;;;5071524;28;20021;-87
2021/07/19 04:31:28;;;;;;;11.70;7.32;;;;;;;;;;5064439;28;20043;-87
2021/07/19 04:33:53;;;;;;;13.25;7.70;;;;;;;;;;5073573;28;20440;-88
2021/07/19 04:36:18;;;;;;;12.85;7.15;;;;;;;;;;5072481;28;20066;-87
2021/07/19 04:38:46;;;;;;;15.00;8.02;;;;;;;;;;5060440;28;20512;-87
2021/07/19 04:41:11;;;;;;;11.88;7.60;;;;;;;;;;5070167;28;20047;-87
2021/07/19 04:43:36;;;;;;;15.00;7.72;;;;;;;;;;5072124;28;20020;-87
2021/07/19 04:46:02;;;;;;;18.83;8.07;;;;;;;;;;5072202;28;20023;-87
2021/07/19 04:48:27;;;;;;;12.18;7.47;;;;;;;;;;5072283;28;20383;-87
2021/07/19 04:50:52;;;;;;;15.40;8.02;;;;;;;;;;5072074;28;20464;-88
2021/07/19 04:53:17;;;;;;;14.48;7.35;;;;;;;;;;5071897;28;20015;-87
2021/07/19 04:55:48;;;;;;;14.38;7.50;;;;;;;;;;5071906;28;20070;-87
2021/07/19 04:58:14;;;;;;;14.65;7.82;;;;;;;;;;5062527;28;20017;-87
2021/07/19 05:00:41;;;;;;;17.15;7.80;;;;;;;;;;5073235;28;20077;-87
2021/07/19 05:03:08;;;;;;;16.90;8.27;;;;;;;;;;5057648;28;20515;-87
2021/07/19 05:05:35;;;;;;;22.55;8.38;;;;;;;;;;5064697;28;20487;-87
2021/07/19 05:08:01;;;;;;;19.33;7.90;;;;;;;;;;5065714;28;20111;-87
2021/07/19 05:10:27;;;;;;;12.10;7.55;;;;;;;;;;5060027;28;20016;-88
2021/07/19 05:12:54;;;;;;;19.75;8.07;;;;;;;;;;5064704;28;20024;-87
2021/07/19 05:15:19;;;;;;;13.98;7.93;;;;;;;;;;5071590;28;20028;-88
2021/07/19 05:17:45;;;;;;;16.02;8.02;;;;;;;;;;5071840;28;20074;-87
2021/07/19 05:20:14;;;;;;;14.93;7.35;;;;;;;;;;5057556;28;20541;-87
2021/07/19 05:22:47;;;;;;;14.20;6.82;;;;;;;;;;5071607;28;20035;-87
2021/07/19 05:25:13;;;;;;;15.50;7.40;;;;;;;;;;5071368;28;20075;-87
2021/07/19 05:27:47;;;;;;;14.35;6.93;;;;;;;;;;5072853;28;20464;-88
2021/07/19 05:30:12;;;;;;;13.40;7.18;;;;;;;;;;5066253;28;20024;-88
2021/07/19 05:32:37;;;;;;;15.35;7.20;;;;;;;;;;5072778;28;20016;-87
2021/07/19 05:35:02;;;;;;;15.88;7.57;;;;;;;;;;5071552;28;20527;-87
2021/07/19 05:37:28;;;;;;;17.02;7.05;;;;;;;;;;5072294;28;20016;-87
2021/07/19 05:39:53;;;;;;;18.38;8.75;;;;;;;;;;5073097;28;20024;-88
2021/07/19 05:42:18;;;;;;;16.23;8.35;;;;;;;;;;5071295;28;20115;-88
2021/07/19 05:44:43;;;;;;;20.08;7.53;;;;;;;;;;5070994;28;20023;-88
2021/07/19 05:47:09;;;;;;;10.63;7.78;;;;;;;;;;5072520;28;20028;-87
2021/07/19 05:49:34;;;;;;;14.20;7.82;;;;;;;;;;5071116;28;20021;-88
2021/07/19 05:51:59;;;;;;;18.33;7.78;;;;;;;;;;5072652;28;20115;-88
2021/07/19 05:54:24;;;;;;;15.45;7.53;;;;;;;;;;5058488;28;20056;-88
2021/07/19 05:56:49;;;;;;;13.25;7.97;;;;;;;;;;5069930;28;20067;-88
2021/07/19 05:59:15;;;;;;;12.48;6.80;;;;;;;;;;5069927;28;20020;-88
2021/07/19 06:01:40;;;;;;;17.60;7.60;;;;;;;;;;5064235;28;20112;-88
2021/07/19 06:04:05;;;;;;;15.55;7.90;;;;;;;;;;5060529;28;20070;-88
2021/07/19 06:06:31;;;;;;;16.70;6.68;;;;;;;;;;5065020;28;20108;-88
2021/07/19 06:08:56;;;;;;;14.10;7.43;;;;;;;;;;5066320;28;20025;-88
2021/07/19 06:11:21;;;;;;;17.05;8.32;;;;;;;;;;5058416;28;20032;-87
2021/07/19 06:13:46;;;;;;;15.05;8.68;;;;;;;;;;5064942;28;20024;-88
2021/07/19 06:16:12;;;;;;;14.88;7.70;;;;;;;;;;5068497;28;20024;-88
2021/07/19 06:18:37;;;;;;;15.05;8.13;;;;;;;;;;5077236;28;20020;-88
2021/07/19 06:21:02;;;;;;;15.25;7.55;;;;;;;;;;5077152;28;20040;-88
2021/07/19 06:23:28;;;;;;;13.02;7.72;;;;;;;;;;5063838;28;20032;-88
2021/07/19 06:25:53;;;;;;;18.38;7.70;;;;;;;;;;5064053;28;20511;-88
2021/07/19 06:28:18;;;;;;;15.20;7.85;;;;;;;;;;5056984;28;20028;-88
2021/07/19 06:30:43;;;;;;;21.10;8.60;;;;;;;;;;5073137;28;20027;-88
2021/07/19 06:33:08;;;;;;;14.43;7.90;;;;;;;;;;5069891;28;20029;-87
2021/07/19 06:35:35;;;;;;;18.48;7.43;;;;;;;;;;5058407;28;20021;-87
2021/07/19 06:38:00;;;;;;;14.88;7.38;;;;;;;;;;5060737;28;20074;-87
2021/07/19 06:40:25;;;;;;;12.13;7.47;;;;;;;;;;5057043;28;20992;-87
2021/07/19 06:42:50;;;;;;;17.20;7.68;;;;;;;;;;5060474;28;20024;-87
2021/07/19 06:45:16;;;;;;;16.50;7.78;;;;;;;;;;5076047;28;20378;-88
2021/07/19 06:47:42;;;;;;;16.27;7.55;;;;;;;;;;5077057;28;20089;-88
2021/07/19 06:50:09;;;;;;;15.15;7.65;;;;;;;;;;5076915;28;20387;-88
2021/07/19 06:52:34;;;;;;;13.30;6.60;;;;;;;;;;5070554;28;20148;-88
2021/07/19 06:55:00;;;;;;;14.38;6.72;;;;;;;;;;5060300;28;20109;-87
2021/07/19 06:57:25;;;;;;;20.63;7.88;;;;;;;;;;5056781;28;20025;-87
2021/07/19 06:59:51;;;;;;;17.08;7.53;;;;;;;;;;5063864;28;20036;-88
2021/07/19 07:02:16;;;;;;;16.23;6.95;;;;;;;;;;5076827;28;20218;-88
2021/07/19 07:04:42;;;;;;;15.88;8.10;;;;;;;;;;5076853;28;20020;-88
2021/07/19 07:07:07;;;;;;;13.15;7.20;;;;;;;;;;5070433;28;20013;-88
2021/07/19 07:09:33;;;;;;;15.55;7.50;;;;;;;;;;5060797;28;20028;-88
2021/07/19 07:11:58;;;;;;;16.63;7.75;;;;;;;;;;5064431;28;20025;-88
2021/07/19 07:14:23;;;;;;;13.85;7.28;;;;;;;;;;5068394;28;20055;-88
2021/07/19 07:16:48;;;;;;;14.45;7.30;;;;;;;;;;5059336;28;20021;-88
2021/07/19 07:19:13;;;;;;;17.55;8.55;;;;;;;;;;5047358;28;20025;-88
2021/07/19 07:21:39;;;;;;;13.10;6.35;;;;;;;;;;5068256;28;20396;-88
2021/07/19 07:24:04;;;;;;;20.45;7.68;;;;;;;;;;5066383;28;20044;-88
2021/07/19 07:26:30;;;;;;;15.45;8.65;;;;;;;;;;5074895;28;20107;-88
2021/07/19 07:28:55;;;;;;;16.15;7.55;;;;;;;;;;5054572;28;20028;-88
2021/07/19 07:31:25;;;;;;;12.35;6.55;;;;;;;;;;5064958;28;20027;-88
2021/07/19 07:33:50;;;;;;;14.15;7.63;;;;;;;;;;5052741;28;20041;-88
2021/07/19 07:36:16;;;;;;;15.60;7.05;;;;;;;;;;5060088;28;20024;-88
2021/07/19 07:38:41;;;;;;;10.20;6.25;;;;;;;;;;5068029;28;20044;-88
2021/07/19 07:41:06;;;;;;;13.43;7.18;;;;;;;;;;5070632;28;20456;-88
2021/07/19 07:43:31;;;;;;;16.58;7.07;;;;;;;;;;5073256;28;20048;-88
2021/07/19 07:45:57;;;;;;;13.95;6.20;;;;;;;;;;5074298;28;20383;-88
2021/07/19 07:48:22;;;;;;;13.95;6.85;;;;;;;;;;5072557;28;20120;-88
2021/07/19 07:50:47;;;;;;;15.52;6.90;;;;;;;;;;5066824;28;20099;-87
2021/07/19 07:53:12;;;;;;;12.48;6.55;;;;;;;;;;5073522;28;20498;-88
2021/07/19 07:55:37;;;;;;;14.18;7.32;;;;;;;;;;5074428;28;20086;-88
2021/07/19 07:58:06;;;;;;;11.05;6.43;;;;;;;;;;5072905;28;20491;-88
2021/07/19 08:00:31;;;;;;;13.00;6.45;;;;;;;;;;5073071;28;20025;-88
2021/07/19 08:02:57;;;;;;;15.55;6.57;;;;;;;;;;5068641;28;20031;-88
2021/07/19 08:05:22;;;;;;;17.10;6.38;;;;;;;;;;5072831;28;20111;-88
2021/07/19 08:07:47;;;;;;;17.60;6.80;;;;;;;;;;5059357;28;20021;-88
2021/07/19 08:10:14;;;;;;;10.38;5.63;;;;;;;;;;5066629;28;20040;-88
2021/07/19 08:12:39;;;;;;;15.50;6.40;;;;;;;;;;5055368;28;20025;-88
2021/07/19 08:15:06;;;;;;;12.25;6.72;;;;;;;;;;5070117;28;20466;-89
2021/07/19 08:17:32;;;;;;;12.27;6.35;;;;;;;;;;5063417;28;20024;-88
2021/07/19 08:19:57;;;;;;;11.93;5.88;;;;;;;;;;5056376;28;20111;-88
2021/07/19 08:22:26;;;;;;;11.32;5.75;;;;;;;;;;5066117;28;20032;-88
2021/07/19 08:24:51;;;;;;;12.15;5.70;;;;;;;;;;5056401;28;20464;-88
2021/07/19 08:27:16;;;;;;;15.38;6.47;;;;;;;;;;5072086;28;20025;-88
2021/07/19 08:29:41;;;;;;;11.57;6.32;;;;;;;;;;5052076;28;20079;-88
2021/07/19 08:32:07;;;;;;;11.02;5.97;;;;;;;;;;5055407;28;20027;-89
2021/07/19 08:34:33;;;;;;;14.05;6.32;;;;;;;;;;5058386;28;20020;-86
2021/07/19 08:36:58;;;;;;;12.25;6.20;;;;;;;;;;5072183;28;20388;-88
2021/07/19 08:39:24;;;;;;;11.10;5.55;;;;;;;;;;5073385;28;20009;-88
2021/07/19 08:41:49;;;;;;;10.88;5.97;;;;;;;;;;5073531;28;20043;-89
2021/07/19 08:44:14;;;;;;;9.40;5.60;;;;;;;;;;5070303;28;20012;-88
2021/07/19 08:46:40;;;;;;;14.10;6.60;;;;;;;;;;5051672;28;20028;-88
2021/07/19 08:49:06;;;;;;;12.80;5.97;;;;;;;;;;5065540;28;20111;-89
2021/07/19 08:51:32;;;;;;;11.48;6.80;;;;;;;;;;5071871;28;20021;-88
2021/07/19 08:54:03;;;;;;;11.13;5.07;;;;;;;;;;5071931;28;20025;-88
2021/07/19 08:56:29;;;;;;;10.60;5.57;;;;;;;;;;5057581;28;20089;-88
2021/07/19 08:58:54;;;;;;;18.13;5.80;;;;;;;;;;5072386;28;20249;-88
2021/07/19 09:01:20;;;;;;;15.05;5.97;;;;;;;;;;5070813;28;20013;-88
2021/07/19 09:03:45;;;;;;;11.50;6.55;;;;;;;;;;5059724;28;20017;-89
2021/07/19 09:06:11;;;;;;;13.52;6.60;;;;;;;;;;5051505;28;20056;-89
2021/07/19 09:08:50;;;;;;;9.82;5.88;;;;;;;;;;5057896;28;20024;-89
2021/07/19 09:11:16;;;;;;;9.75;6.22;;;;;;;;;;5071842;28;20021;-89
2021/07/19 09:14:02;;;;;;;14.48;5.78;;;;;;;;;;5067597;28;20089;-89
2021/07/19 09:16:38;;;;;;;10.27;5.75;;;;;;;;;;5065231;28;20453;-89
2021/07/19 09:19:04;;;;;;;13.15;6.45;;;;;;;;;;5057548;28;20059;-88
2021/07/19 09:21:34;;;;;;;13.27;6.55;;;;;;;;;;5051693;28;20102;-87
2021/07/19 09:24:03;;;;;;;15.70;7.18;;;;;;;;;;5050916;28;20017;-89
2021/07/19 09:26:32;;;;;;;10.73;6.65;;;;;;;;;;5051940;28;20052;-89
2021/07/19 09:28:58;;;;;;;15.02;7.93;;;;;;;;;;5061239;28;20025;-89
2021/07/19 09:31:38;;;;;;;13.88;7.72;;;;;;;;;;5071191;28;20127;-89
2021/07/19 09:34:16;;;;;;;18.45;8.20;;;;;;;;;;5071036;28;20028;-88
2021/07/19 09:37:01;;;;;;;19.05;7.30;;;;;;;;;;5071297;28;20017;-89
2021/07/19 09:39:28;;;;;;;13.73;7.18;;;;;;;;;;5069117;28;20024;-88
2021/07/19 09:42:22;;;;;;;15.63;7.30;;;;;;;;;;5051286;28;20112;-89
2021/07/19 09:44:56;;;;;;;15.77;7.38;;;;;;;;;;5047410;28;20488;-89
2021/07/19 09:47:31;;;;;;;14.13;7.25;;;;;;;;;;5064309;28;20040;-89
2021/07/19 09:49:57;;;;;;;17.20;7.88;;;;;;;;;;5042589;28;20135;-89
2021/07/19 09:52:22;;;;;;;20.73;7.85;;;;;;;;;;5063086;28;20166;-89
2021/07/19 09:54:47;;;;;;;14.20;7.32;;;;;;;;;;5066896;28;20013;-88
2021/07/19 09:57:13;;;;;;;15.25;7.93;;;;;;;;;;5053472;28;20021;-89
2021/07/19 09:59:50;;;;;;;15.23;8.13;;;;;;;;;;5060316;28;20032;-89
2021/07/19 10:02:34;;;;;;;14.27;7.57;;;;;;;;;;5050432;28;20495;-89
2021/07/19 10:05:00;;;;;;;17.13;8.15;;;;;;;;;;5057285;28;20671;-89
2021/07/19 10:07:25;;;;;;;13.07;7.53;;;;;;;;;;5062188;28;20096;-89
2021/07/19 10:09:54;;;;;;;16.17;7.63;;;;;;;;;;5056998;28;20025;-89
2021/07/19 10:12:20;;;;;;;12.57;7.30;;;;;;;;;;5051244;28;20361;-88
2021/07/19 10:14:47;;;;;;;14.45;7.60;;;;;;;;;;5061364;28;20100;-89
2021/07/19 10:17:12;;;;;;;16.02;7.70;;;;;;;;;;5051281;28;20025;-88
2021/07/19 10:19:40;;;;;;;16.17;8.13;;;;;;;;;;5057483;28;20025;-85
2021/07/19 10:22:05;;;;;;;15.30;7.85;;;;;;;;;;5054830;28;20036;-85
2021/07/19 10:24:31;;;;;;;13.52;7.95;;;;;;;;;;5061525;28;20434;-85
2021/07/19 10:26:56;;;;;;;16.65;8.40;;;;;;;;;;5055055;28;20090;-85
2021/07/19 10:29:21;;;;;;;16.85;7.97;;;;;;;;;;5070533;28;20489;-85
2021/07/19 10:31:47;;;;;;;14.40;7.70;;;;;;;;;;5071789;28;20025;-85
2021/07/19 10:34:14;;;;;;;14.30;7.88;;;;;;;;;;5070715;28;20032;-85
2021/07/19 10:36:39;;;;;;;14.25;8.30;;;;;;;;;;5068324;28;20027;-85
2021/07/19 10:39:06;;;;;;;15.55;8.55;;;;;;;;;;5056562;28;20384;-85
2021/07/19 10:41:31;;;;;;;15.77;7.93;;;;;;;;;;5055403;28;20079;-86
2021/07/19 10:44:01;;;;;;;19.20;8.18;;;;;;;;;;5063399;28;20463;-84
2021/07/19 10:46:29;;;;;;;16.73;8.35;;;;;;;;;;5070372;28;20487;-85
2021/07/19 10:49:07;;;;;;;18.27;8.60;;;;;;;;;;5070282;28;20036;-85
2021/07/19 10:51:45;;;;;;;16.08;8.05;;;;;;;;;;5050791;28;20020;-85
2021/07/19 10:54:12;;;;;;;15.90;8.13;;;;;;;;;;5053232;28;20060;-85
2021/07/19 10:56:37;;;;;;;18.50;8.20;;;;;;;;;;5054771;28;20104;-85
2021/07/19 10:59:03;;;;;;;13.57;7.78;;;;;;;;;;5066794;28;20063;-85
2021/07/19 11:01:29;;;;;;;13.90;7.43;;;;;;;;;;5070796;28;20435;-85
2021/07/19 11:03:55;;;;;;;14.02;7.80;;;;;;;;;;5075765;28;20039;-85
2021/07/19 11:06:36;;;;;;;16.80;7.55;;;;;;;;;;5075556;28;20013;-85
2021/07/19 11:09:03;;;;;;;16.40;8.20;;;;;;;;;;5074609;28;20032;-85
2021/07/19 11:11:40;;;;;;;17.55;8.32;;;;;;;;;;5069984;28;20537;-85
2021/07/19 11:14:06;;;;;;;14.80;8.60;;;;;;;;;;5063443;28;20460;-85
2021/07/19 11:16:48;;;;;;;24.40;8.88;;;;;;;;;;5066788;28;20031;-85
2021/07/19 11:19:14;;;;;;;16.35;8.23;;;;;;;;;;5075518;28;20024;-85
2021/07/19 11:21:39;;;;;;;18.13;7.43;;;;;;;;;;5060143;28;20031;-85
2021/07/19 11:24:15;;;;;;;14.43;7.90;;;;;;;;;;5075491;28;20084;-85
2021/07/19 11:26:48;;;;;;;16.52;8.25;;;;;;;;;;5061267;28;20017;-85
2021/07/19 11:29:24;;;;;;;21.30;8.18;;;;;;;;;;5061863;28;20717;-86
2021/07/19 11:32:02;;;;;;;15.65;8.48;;;;;;;;;;5072962;28;20105;-85
2021/07/19 11:34:27;;;;;;;17.55;7.97;;;;;;;;;;5068207;28;20044;-85
2021/07/19 11:36:52;;;;;;;13.80;7.35;;;;;;;;;;5059799;28;20102;-85
2021/07/19 11:39:19;;;;;;;15.77;8.45;;;;;;;;;;5070388;28;20077;-85
2021/07/19 11:41:44;;;;;;;16.52;7.38;;;;;;;;;;5073824;28;20030;-85
2021/07/19 11:44:14;;;;;;;14.90;8.32;;;;;;;;;;5059674;28;20021;-86
2021/07/19 11:46:39;;;;;;;13.30;8.23;;;;;;;;;;5073609;28;20021;-85
2021/07/19 11:49:09;;;;;;;13.98;8.25;;;;;;;;;;5074011;28;20027;-85
2021/07/19 11:51:37;;;;;;;16.85;8.40;;;;;;;;;;5073416;28;20491;-85
2021/07/19 11:54:05;;;;;;;20.33;8.23;;;;;;;;;;5061442;28;20064;-85
2021/07/19 11:56:31;;;;;;;18.80;7.90;;;;;;;;;;5062914;28;20756;-85
2021/07/19 11:59:02;;;;;;;13.30;7.13;;;;;;;;;;5053139;28;20086;-85
2021/07/19 12:01:32;;;;;;;12.27;7.32;;;;;;;;;;5050095;28;20056;-85
2021/07/19 12:03:58;;;;;;;17.05;8.25;;;;;;;;;;5084010;28;20033;-85
2021/07/19 12:06:24;;;;;;;13.70;8.10;;;;;;;;;;5052887;28;20092;-85
2021/07/19 12:08:54;;;;;;;14.45;8.00;;;;;;;;;;5053823;28;20113;-85
2021/07/19 12:11:19;;;;;;;17.05;8.10;;;;;;;;;;5054267;28;20460;-86
2021/07/19 12:13:45;;;;;;;14.98;8.00;;;;;;;;;;5054032;28;20016;-86
2021/07/19 12:16:11;;;;;;;14.50;7.80;;;;;;;;;;5052388;28;20028;-86
2021/07/19 12:18:39;;;;;;;15.32;7.05;;;;;;;;;;5052959;28;20027;-85
2021/07/19 12:21:05;;;;;;;13.48;7.70;;;;;;;;;;5052754;28;20143;-86
2021/07/19 12:23:41;;;;;;;14.02;7.50;;;;;;;;;;5051712;28;20388;-85
2021/07/19 12:26:06;;;;;;;14.50;7.68;;;;;;;;;;5051800;28;20036;-85
2021/07/19 12:28:32;;;;;;;15.18;8.98;;;;;;;;;;5052367;28;20663;-86
2021/07/19 12:31:26;;;;;;;14.85;7.97;;;;;;;;;;5052736;28;20365;-84
2021/07/19 12:33:51;;;;;;;16.45;9.40;;;;;;;;;;5074305;28;20029;-85
2021/07/19 12:36:17;;;;;;;13.48;8.18;;;;;;;;;;5066066;28;20096;-85
2021/07/19 12:38:43;;;;;;;16.40;8.38;;;;;;;;;;5052460;28;20448;-86
2021/07/19 12:41:11;;;;;;;16.05;8.88;;;;;;;;;;5062409;28;20020;-87
2021/07/19 12:43:37;;;;;;;14.98;7.78;;;;;;;;;;5072995;28;20436;-86
2021/07/19 12:46:02;;;;;;;17.55;8.20;;;;;;;;;;5055617;28;20059;-85
2021/07/19 12:48:28;;;;;;;16.65;8.43;;;;;;;;;;5057003;28;20388;-86
2021/07/19 12:51:03;;;;;;;16.02;8.23;;;;;;;;;;5066281;28;20384;-84
2021/07/19 12:53:33;;;;;;;15.70;7.93;;;;;;;;;;5059781;28;20024;-86
2021/07/19 12:56:12;;;;;;;13.45;7.13;;;;;;;;;;5063361;28;20064;-86
2021/07/19 12:58:38;;;;;;;17.67;7.50;;;;;;;;;;5039722;28;20017;-85
2021/07/19 13:01:13;;;;;;;18.60;8.90;;;;;;;;;;5065755;28;20027;-85
2021/07/19 13:03:38;;;;;;;14.10;7.57;;;;;;;;;;5047114;28;20075;-86
2021/07/19 13:06:05;;;;;;;12.70;7.05;;;;;;;;;;5073040;28;20048;-85
2021/07/19 13:08:30;;;;;;;17.63;7.82;;;;;;;;;;5071577;28;20464;-85
2021/07/19 13:11:12;;;;;;;17.60;8.00;;;;;;;;;;5071792;28;20024;-86
2021/07/19 13:13:38;;;;;;;14.77;7.80;;;;;;;;;;5071569;28;20021;-85
2021/07/19 13:16:03;;;;;;;16.25;8.10;;;;;;;;;;5071646;28;20086;-85
2021/07/19 13:18:28;;;;;;;14.25;8.35;;;;;;;;;;5071672;28;20055;-85
2021/07/19 13:21:07;;;;;;;19.58;8.20;;;;;;;;;;5064535;28;20024;-85
2021/07/19 13:23:34;;;;;;;18.67;7.78;;;;;;;;;;5055539;28;20032;-86
2021/07/19 13:26:10;;;;;;;16.23;7.53;;;;;;;;;;5069646;28;20035;-85
2021/07/19 13:28:35;;;;;;;14.23;7.57;;;;;;;;;;5069712;28;20012;-86
2021/07/19 13:31:02;;;;;;;15.45;7.93;;;;;;;;;;5069523;28;20023;-85
2021/07/19 13:33:27;;;;;;;15.32;7.97;;;;;;;;;;5065844;28;20384;-86
2021/07/19 13:35:52;;;;;;;17.52;7.18;;;;;;;;;;5069084;28;20017;-86
2021/07/19 13:38:18;;;;;;;13.23;7.70;;;;;;;;;;5069796;28;20020;-85
2021/07/19 13:40:44;;;;;;;16.13;7.43;;;;;;;;;;5068977;28;20017;-86
2021/07/19 13:43:13;;;;;;;13.70;7.45;;;;;;;;;;5069391;28;20028;-86
2021/07/19 13:45:39;;;;;;;12.65;8.02;;;;;;;;;;5069334;28;20032;-85
2021/07/19 13:48:04;;;;;;;12.38;7.68;;;;;;;;;;5069087;28;20119;-86
2021/07/19 13:50:29;;;;;;;16.52;8.50;;;;;;;;;;5067517;28;20577;-86
2021/07/19 13:52:55;;;;;;;13.65;7.82;;;;;;;;;;5065087;28;20040;-86
2021/07/19 13:55:20;;;;;;;15.70;8.07;;;;;;;;;;5061060;28;20403;-86
2021/07/19 13:57:45;;;;;;;14.57;8.38;;;;;;;;;;5072318;28;20404;-86
2021/07/19 14:00:14;;;;;;;16.38;8.10;;;;;;;;;;5064965;28;20111;-85
2021/07/19 14:02:39;;;;;;;17.85;8.25;;;;;;;;;;5063792;28;20030;-86
2021/07/19 14:05:04;;;;;;;14.35;7.72;;;;;;;;;;5070594;28;20379;-85
2021/07/19 14:07:29;;;;;;;13.70;7.60;;;;;;;;;;5071034;28;20023;-85
2021/07/19 14:09:55;;;;;;;15.05;7.88;;;;;;;;;;5056479;28;20051;-86
2021/07/19 14:12:20;;;;;;;17.88;8.27;;;;;;;;;;5051856;28;20029;-86
2021/07/19 14:14:46;;;;;;;17.55;8.57;;;;;;;;;;5065254;28;20032;-85
2021/07/19 14:17:11;;;;;;;17.15;8.27;;;;;;;;;;5070907;28;20021;-85
2021/07/19 14:19:36;;;;;;;16.10;8.68;;;;;;;;;;5058121;28;20108;-85
2021/07/19 14:22:02;;;;;;;14.43;7.20;;;;;;;;;;5068974;28;20027;-86
2021/07/19 14:24:27;;;;;;;17.17;7.93;;;;;;;;;;5067573;28;20017;-86
2021/07/19 14:26:52;;;;;;;14.35;7.80;;;;;;;;;;5053858;28;20020;-85
2021/07/19 14:29:17;;;;;;;16.80;7.82;;;;;;;;;;5065847;28;20024;-86